sensor_id;sensor_type;location;lat;lon;timestamp;pressure;altitude;pressure_sealevel;temperature;humidity
6224;BME280;3145;42.726;23.342;2023-03-23T00:00:57;73217.69;;;-142.70;82.62
6224;BME280;3145;42.726;23.342;2023-03-23T00:03:24;73223.75;;;-142.70;82.81
6224;BME280;3145;42.726;23.342;2023-03-23T00:05:55;73233.81;;;-142.70;82.72
6224;BME280;3145;42.726;23.342;2023-03-23T00:08:25;73233.81;;;-142.70;82.76
6224;BME280;3145;42.726;23.342;2023-03-23T00:10:52;73241.88;;;-142.70;82.86
6224;BME280;3145;42.726;23.342;2023-03-23T00:13:22;73243.88;;;-142.70;82.67
6224;BME280;3145;42.726;23.342;2023-03-23T00:15:49;73247.91;;;-142.70;82.36
6224;BME280;3145;42.726;23.342;2023-03-23T00:18:17;73241.88;;;-142.70;82.39
6224;BME280;3145;42.726;23.342;2023-03-23T00:20:48;73245.91;;;-142.70;82.45
6224;BME280;3145;42.726;23.342;2023-03-23T00:23:17;73258.00;;;-142.70;82.18
6224;BME280;3145;42.726;23.342;2023-03-23T00:25:46;73266.06;;;-142.70;81.95
6224;BME280;3145;42.726;23.342;2023-03-23T00:28:13;73286.19;;;-142.70;82.21
6224;BME280;3145;42.726;23.342;2023-03-23T00:30:40;73298.28;;;-142.70;82.99
6224;BME280;3145;42.726;23.342;2023-03-23T00:33:10;73302.31;;;-142.70;83.04
6224;BME280;3145;42.726;23.342;2023-03-23T00:35:40;73302.31;;;-142.70;83.01
6224;BME280;3145;42.726;23.342;2023-03-23T00:38:06;73302.31;;;-142.70;83.12
6224;BME280;3145;42.726;23.342;2023-03-23T00:40:35;73310.38;;;-142.70;82.99
6224;BME280;3145;42.726;23.342;2023-03-23T00:43:02;73318.44;;;-142.70;83.14
6224;BME280;3145;42.726;23.342;2023-03-23T00:45:30;73312.41;;;-142.70;82.75
6224;BME280;3145;42.726;23.342;2023-03-23T00:47:57;73316.44;;;-142.70;82.81
6224;BME280;3145;42.726;23.342;2023-03-23T00:50:27;73330.53;;;-142.70;82.60
6224;BME280;3145;42.726;23.342;2023-03-23T00:52:54;73334.56;;;-142.70;82.71
6224;BME280;3145;42.726;23.342;2023-03-23T00:55:22;73338.59;;;-142.70;82.94
6224;BME280;3145;42.726;23.342;2023-03-23T00:57:51;73338.59;;;-142.70;82.78
6224;BME280;3145;42.726;23.342;2023-03-23T01:00:18;73358.75;;;-142.70;82.51
6224;BME280;3145;42.726;23.342;2023-03-23T01:02:45;73362.78;;;-142.70;82.41
6224;BME280;3145;42.726;23.342;2023-03-23T01:05:12;73378.88;;;-142.70;82.63
6224;BME280;3145;42.726;23.342;2023-03-23T01:07:40;73386.94;;;-142.70;82.75
6224;BME280;3145;42.726;23.342;2023-03-23T01:10:08;73382.91;;;-142.70;83.12
6224;BME280;3145;42.726;23.342;2023-03-23T01:12:34;73378.88;;;-142.70;83.68
6224;BME280;3145;42.726;23.342;2023-03-23T01:15:03;73378.88;;;-142.70;83.57
6224;BME280;3145;42.726;23.342;2023-03-23T01:17:30;73366.81;;;-142.70;83.83
6224;BME280;3145;42.726;23.342;2023-03-23T01:19:56;73358.75;;;-142.70;84.15
6224;BME280;3145;42.726;23.342;2023-03-23T01:22:23;73364.78;;;-142.70;83.69
6224;BME280;3145;42.726;23.342;2023-03-23T01:24:50;73354.72;;;-142.70;83.93
6224;BME280;3145;42.726;23.342;2023-03-23T01:27:17;73350.69;;;-142.70;83.76
6224;BME280;3145;42.726;23.342;2023-03-23T01:29:44;73346.66;;;-142.70;83.88
6224;BME280;3145;42.726;23.342;2023-03-23T01:32:12;73342.63;;;-142.70;83.55
6224;BME280;3145;42.726;23.342;2023-03-23T01:34:38;73334.56;;;-142.70;83.67
6224;BME280;3145;42.726;23.342;2023-03-23T01:37:05;73336.56;;;-142.70;83.42
6224;BME280;3145;42.726;23.342;2023-03-23T01:39:32;73334.56;;;-142.70;83.44
6224;BME280;3145;42.726;23.342;2023-03-23T01:41:59;73334.56;;;-142.70;84.00
6224;BME280;3145;42.726;23.342;2023-03-23T01:47:31;73294.25;;;-142.70;85.50
6224;BME280;3145;42.726;23.342;2023-03-23T01:49:58;73294.25;;;-142.70;85.95
6224;BME280;3145;42.726;23.342;2023-03-23T01:52:27;73278.16;;;-142.70;86.66
6224;BME280;3145;42.726;23.342;2023-03-23T01:54:55;73274.13;;;-142.70;87.29
6224;BME280;3145;42.726;23.342;2023-03-23T01:57:24;73300.31;;;-142.70;86.84
6224;BME280;3145;42.726;23.342;2023-03-23T01:59:54;73314.41;;;-142.70;86.13
6224;BME280;3145;42.726;23.342;2023-03-23T02:02:24;73294.25;;;-142.70;86.41
6224;BME280;3145;42.726;23.342;2023-03-23T02:04:55;73288.22;;;-142.70;86.81
6224;BME280;3145;42.726;23.342;2023-03-23T02:07:24;73286.19;;;-142.70;86.78
6224;BME280;3145;42.726;23.342;2023-03-23T02:09:51;73278.16;;;-142.70;86.65
6224;BME280;3145;42.726;23.342;2023-03-23T02:12:18;73286.19;;;-142.70;86.67
6224;BME280;3145;42.726;23.342;2023-03-23T02:14:45;73290.22;;;-142.70;86.67
6224;BME280;3145;42.726;23.342;2023-03-23T02:17:20;73288.22;;;-142.70;86.29
6224;BME280;3145;42.726;23.342;2023-03-23T02:20:02;73286.19;;;-142.70;86.35
6224;BME280;3145;42.726;23.342;2023-03-23T02:25:52;73270.09;;;-142.70;86.56
6224;BME280;3145;42.726;23.342;2023-03-23T02:28:49;73270.09;;;-142.70;86.12
6224;BME280;3145;42.726;23.342;2023-03-23T02:31:31;73270.09;;;-142.70;86.07
6224;BME280;3145;42.726;23.342;2023-03-23T02:34:09;73282.16;;;-142.70;86.24
6224;BME280;3145;42.726;23.342;2023-03-23T02:36:41;73286.19;;;-142.70;85.58
6224;BME280;3145;42.726;23.342;2023-03-23T02:39:14;73290.22;;;-142.70;85.97
6224;BME280;3145;42.726;23.342;2023-03-23T02:41:49;73296.28;;;-142.70;85.58
6224;BME280;3145;42.726;23.342;2023-03-23T02:44:17;73298.28;;;-142.70;85.27
6224;BME280;3145;42.726;23.342;2023-03-23T02:46:44;73314.41;;;-142.70;85.00
6224;BME280;3145;42.726;23.342;2023-03-23T02:49:15;73324.50;;;-142.70;84.73
6224;BME280;3145;42.726;23.342;2023-03-23T02:51:44;73326.50;;;-142.70;84.92
6224;BME280;3145;42.726;23.342;2023-03-23T02:54:15;73322.47;;;-142.70;84.59
6224;BME280;3145;42.726;23.342;2023-03-23T02:56:44;73322.47;;;-142.70;84.95
6224;BME280;3145;42.726;23.342;2023-03-23T02:59:11;73322.47;;;-142.70;85.00
6224;BME280;3145;42.726;23.342;2023-03-23T03:02:05;73326.50;;;-142.70;84.90
6224;BME280;3145;42.726;23.342;2023-03-23T03:04:35;73318.44;;;-142.70;85.05
6224;BME280;3145;42.726;23.342;2023-03-23T03:07:20;73322.47;;;-142.70;84.75
6224;BME280;3145;42.726;23.342;2023-03-23T03:09:53;73330.53;;;-142.70;84.65
6224;BME280;3145;42.726;23.342;2023-03-23T03:12:30;73342.63;;;-142.70;83.88
6224;BME280;3145;42.726;23.342;2023-03-23T03:15:09;73386.94;;;-142.70;82.54
6224;BME280;3145;42.726;23.342;2023-03-23T03:17:41;73413.16;;;-142.70;82.03
6224;BME280;3145;42.726;23.342;2023-03-23T03:20:13;73459.50;;;-142.70;82.06
6224;BME280;3145;42.726;23.342;2023-03-23T03:22:43;73501.81;;;-142.70;83.10
6224;BME280;3145;42.726;23.342;2023-03-23T03:25:12;73507.84;;;-142.70;84.13
6224;BME280;3145;42.726;23.342;2023-03-23T03:27:44;73505.84;;;-142.70;84.83
6224;BME280;3145;42.726;23.342;2023-03-23T03:30:16;73495.75;;;-142.70;85.50
6224;BME280;3145;42.726;23.342;2023-03-23T03:32:46;73487.69;;;-142.70;85.69
6224;BME280;3145;42.726;23.342;2023-03-23T03:35:18;73511.88;;;-142.70;85.27
6224;BME280;3145;42.726;23.342;2023-03-23T03:37:45;73503.81;;;-142.70;85.30
6224;BME280;3145;42.726;23.342;2023-03-23T03:40:13;73515.91;;;-142.70;84.53
6224;BME280;3145;42.726;23.342;2023-03-23T03:42:42;73532.03;;;-142.70;84.45
6224;BME280;3145;42.726;23.342;2023-03-23T03:45:12;73526.00;;;-142.70;84.58
6224;BME280;3145;42.726;23.342;2023-03-23T03:47:39;73515.91;;;-142.70;84.70
6224;BME280;3145;42.726;23.342;2023-03-23T03:50:07;73507.84;;;-142.70;85.30
6224;BME280;3145;42.726;23.342;2023-03-23T03:52:35;73501.81;;;-142.70;85.69
6224;BME280;3145;42.726;23.342;2023-03-23T03:55:04;73475.63;;;-142.70;86.20
6224;BME280;3145;42.726;23.342;2023-03-23T03:57:32;73455.47;;;-142.70;86.79
6224;BME280;3145;42.726;23.342;2023-03-23T03:59:59;73431.28;;;-142.70;87.03
6224;BME280;3145;42.726;23.342;2023-03-23T04:02:26;73423.22;;;-142.70;87.19
6224;BME280;3145;42.726;23.342;2023-03-23T04:04:52;73407.09;;;-142.70;86.98
6224;BME280;3145;42.726;23.342;2023-03-23T04:07:19;73407.09;;;-142.70;86.61
6224;BME280;3145;42.726;23.342;2023-03-23T04:09:48;73417.19;;;-142.70;85.96
6224;BME280;3145;42.726;23.342;2023-03-23T04:12:15;73415.16;;;-142.70;85.55
6224;BME280;3145;42.726;23.342;2023-03-23T04:14:42;73395.00;;;-142.70;85.42
6224;BME280;3145;42.726;23.342;2023-03-23T04:17:08;73390.97;;;-142.70;85.49
6224;BME280;3145;42.726;23.342;2023-03-23T04:19:36;73380.91;;;-142.70;85.26
6224;BME280;3145;42.726;23.342;2023-03-23T04:22:03;73366.81;;;-142.70;85.06
6224;BME280;3145;42.726;23.342;2023-03-23T04:24:30;73366.81;;;-142.70;85.16
6224;BME280;3145;42.726;23.342;2023-03-23T04:27:00;73362.78;;;-142.70;84.52
6224;BME280;3145;42.726;23.342;2023-03-23T04:29:27;73360.75;;;-142.70;84.32
6224;BME280;3145;42.726;23.342;2023-03-23T04:31:53;73350.69;;;-142.70;84.10
6224;BME280;3145;42.726;23.342;2023-03-23T04:34:21;73348.66;;;-142.70;83.38
6224;BME280;3145;42.726;23.342;2023-03-23T04:36:48;73354.72;;;-142.70;83.39
6224;BME280;3145;42.726;23.342;2023-03-23T04:39:16;73350.69;;;-142.70;83.10
6224;BME280;3145;42.726;23.342;2023-03-23T04:41:43;73350.69;;;-142.70;83.23
6224;BME280;3145;42.726;23.342;2023-03-23T04:44:12;73344.63;;;-142.70;82.84
6224;BME280;3145;42.726;23.342;2023-03-23T04:46:43;73342.63;;;-142.70;82.79
6224;BME280;3145;42.726;23.342;2023-03-23T04:49:15;73342.63;;;-142.70;82.78
6224;BME280;3145;42.726;23.342;2023-03-23T04:51:46;73342.63;;;-142.70;84.14
6224;BME280;3145;42.726;23.342;2023-03-23T04:54:13;73342.63;;;-142.70;85.62
6224;BME280;3145;42.726;23.342;2023-03-23T04:56:40;73334.56;;;-142.70;84.83
6224;BME280;3145;42.726;23.342;2023-03-23T04:59:07;73332.53;;;-142.70;85.06
6224;BME280;3145;42.726;23.342;2023-03-23T05:01:35;73328.50;;;-142.70;84.45
6224;BME280;3145;42.726;23.342;2023-03-23T05:04:04;73330.53;;;-142.70;84.03
6224;BME280;3145;42.726;23.342;2023-03-23T05:06:30;73332.53;;;-142.70;84.04
6224;BME280;3145;42.726;23.342;2023-03-23T05:08:57;73318.44;;;-142.70;83.68
6224;BME280;3145;42.726;23.342;2023-03-23T05:11:24;73318.44;;;-142.70;82.96
6224;BME280;3145;42.726;23.342;2023-03-23T05:13:51;73318.44;;;-142.70;83.11
6224;BME280;3145;42.726;23.342;2023-03-23T05:16:18;73342.63;;;-142.70;82.49
6224;BME280;3145;42.726;23.342;2023-03-23T05:18:46;73344.63;;;-142.70;82.07
6224;BME280;3145;42.726;23.342;2023-03-23T05:21:13;73346.66;;;-142.70;81.73
6224;BME280;3145;42.726;23.342;2023-03-23T05:23:40;73348.66;;;-142.70;81.91
6224;BME280;3145;42.726;23.342;2023-03-23T05:26:07;73346.66;;;-142.70;82.14
6224;BME280;3145;42.726;23.342;2023-03-23T05:28:34;73330.53;;;-142.70;82.33
6224;BME280;3145;42.726;23.342;2023-03-23T05:31:01;73330.53;;;-142.70;82.39
6224;BME280;3145;42.726;23.342;2023-03-23T05:33:28;73316.44;;;-142.70;81.73
6224;BME280;3145;42.726;23.342;2023-03-23T05:35:56;73302.31;;;-142.70;81.73
6224;BME280;3145;42.726;23.342;2023-03-23T05:38:23;73302.31;;;-142.70;81.60
6224;BME280;3145;42.726;23.342;2023-03-23T05:40:50;73286.19;;;-142.70;81.17
6224;BME280;3145;42.726;23.342;2023-03-23T05:43:17;73286.19;;;-142.70;81.06
6224;BME280;3145;42.726;23.342;2023-03-23T05:45:44;73286.19;;;-142.70;80.67
6224;BME280;3145;42.726;23.342;2023-03-23T05:48:11;73270.09;;;-142.70;81.12
6224;BME280;3145;42.726;23.342;2023-03-23T05:50:37;73258.00;;;-142.70;81.08
6224;BME280;3145;42.726;23.342;2023-03-23T05:53:06;73255.97;;;-142.70;81.13
6224;BME280;3145;42.726;23.342;2023-03-23T05:55:33;73237.84;;;-142.70;81.04
6224;BME280;3145;42.726;23.342;2023-03-23T05:57:59;73227.78;;;-142.70;81.31
6224;BME280;3145;42.726;23.342;2023-03-23T06:00:26;73209.63;;;-142.70;81.28
6224;BME280;3145;42.726;23.342;2023-03-23T06:02:55;73185.47;;;-142.70;81.27
6224;BME280;3145;42.726;23.342;2023-03-23T06:05:22;73171.34;;;-142.70;81.20
6224;BME280;3145;42.726;23.342;2023-03-23T06:07:51;73185.47;;;-142.70;79.35
6224;BME280;3145;42.726;23.342;2023-03-23T06:10:20;73185.47;;;-142.70;78.63
6224;BME280;3145;42.726;23.342;2023-03-23T06:12:47;73203.59;;;-142.70;77.98
6224;BME280;3145;42.726;23.342;2023-03-23T06:15:13;73173.38;;;-142.70;79.63
6224;BME280;3145;42.726;23.342;2023-03-23T06:17:40;73129.03;;;-142.70;80.72
6224;BME280;3145;42.726;23.342;2023-03-23T06:20:08;73098.81;;;-142.70;80.34
6224;BME280;3145;42.726;23.342;2023-03-23T06:22:36;73088.75;;;-142.70;79.73
6224;BME280;3145;42.726;23.342;2023-03-23T06:25:04;73040.38;;;-142.70;80.09
6224;BME280;3145;42.726;23.342;2023-03-23T06:27:32;72977.94;;;-142.70;80.59
6224;BME280;3145;42.726;23.342;2023-03-23T06:29:59;72895.31;;;-142.70;80.88
6224;BME280;3145;42.726;23.342;2023-03-23T06:32:26;72875.19;;;-142.70;79.67
6224;BME280;3145;42.726;23.342;2023-03-23T06:34:55;72814.75;;;-142.70;77.80
6224;BME280;3145;42.726;23.342;2023-03-23T06:37:22;72754.28;;;-142.70;76.75
6224;BME280;3145;42.726;23.342;2023-03-23T06:39:49;72726.09;;;-142.70;74.17
6224;BME280;3145;42.726;23.342;2023-03-23T06:42:17;72669.69;;;-142.70;71.19
6224;BME280;3145;42.726;23.342;2023-03-23T06:44:45;72631.41;;;-142.70;69.20
6224;BME280;3145;42.726;23.342;2023-03-23T06:47:12;72585.06;;;-142.70;69.64
6224;BME280;3145;42.726;23.342;2023-03-23T06:49:39;72508.53;;;-142.70;66.78
6224;BME280;3145;42.726;23.342;2023-03-23T06:52:06;72466.22;;;-142.70;64.38
6224;BME280;3145;42.726;23.342;2023-03-23T06:54:32;72476.28;;;-142.70;63.18
6224;BME280;3145;42.726;23.342;2023-03-23T06:56:59;72440.03;;;-142.70;62.61
6224;BME280;3145;42.726;23.342;2023-03-23T06:59:26;72381.59;;;-142.70;61.30
6224;BME280;3145;42.726;23.342;2023-03-23T07:01:54;72339.31;;;-142.70;59.42
6224;BME280;3145;42.726;23.342;2023-03-23T07:04:21;72290.97;;;-142.70;58.84
6224;BME280;3145;42.726;23.342;2023-03-23T07:06:48;72299.03;;;-142.70;54.62
6224;BME280;3145;42.726;23.342;2023-03-23T07:09:15;72295.00;;;-142.70;53.25
6224;BME280;3145;42.726;23.342;2023-03-23T07:11:42;72280.88;;;-142.70;52.68
6224;BME280;3145;42.726;23.342;2023-03-23T07:14:09;72260.75;;;-142.70;51.92
6224;BME280;3145;42.726;23.342;2023-03-23T07:16:36;72210.38;;;-142.70;51.07
6224;BME280;3145;42.726;23.342;2023-03-23T07:19:04;72178.16;;;-142.70;49.70
6224;BME280;3145;42.726;23.342;2023-03-23T07:21:31;72123.78;;;-142.70;49.00
6224;BME280;3145;42.726;23.342;2023-03-23T07:23:57;72117.72;;;-142.70;46.99
6224;BME280;3145;42.726;23.342;2023-03-23T07:26:24;72137.88;;;-142.70;47.23
6224;BME280;3145;42.726;23.342;2023-03-23T07:28:51;72073.41;;;-142.70;44.85
6224;BME280;3145;42.726;23.342;2023-03-23T07:31:18;72055.28;;;-142.70;44.60
6224;BME280;3145;42.726;23.342;2023-03-23T07:33:44;72069.38;;;-142.70;43.74
6224;BME280;3145;42.726;23.342;2023-03-23T07:36:12;72123.78;;;-142.70;43.91
6224;BME280;3145;42.726;23.342;2023-03-23T07:38:39;72166.06;;;-142.70;45.10
6224;BME280;3145;42.726;23.342;2023-03-23T07:41:06;72127.81;;;-142.70;43.83
6224;BME280;3145;42.726;23.342;2023-03-23T07:43:33;72178.16;;;-142.70;43.86
6224;BME280;3145;42.726;23.342;2023-03-23T07:46:01;72149.97;;;-142.70;44.79
6224;BME280;3145;42.726;23.342;2023-03-23T07:48:27;72113.69;;;-142.70;44.74
6224;BME280;3145;42.726;23.342;2023-03-23T07:50:54;72073.41;;;-142.70;43.25
6224;BME280;3145;42.726;23.342;2023-03-23T07:53:22;72069.38;;;-142.70;43.24
6224;BME280;3145;42.726;23.342;2023-03-23T07:55:49;72079.47;;;-142.70;43.25
6224;BME280;3145;42.726;23.342;2023-03-23T07:58:16;72154.00;;;-142.70;43.93
6224;BME280;3145;42.726;23.342;2023-03-23T08:00:45;72176.16;;;-142.70;44.98
6224;BME280;3145;42.726;23.342;2023-03-23T08:03:12;72141.91;;;-142.70;44.39
6224;BME280;3145;42.726;23.342;2023-03-23T08:05:38;72133.84;;;-142.70;44.67
6224;BME280;3145;42.726;23.342;2023-03-23T08:08:07;72095.56;;;-142.70;44.71
6224;BME280;3145;42.726;23.342;2023-03-23T08:10:36;72065.38;;;-142.70;43.95
6224;BME280;3145;42.726;23.342;2023-03-23T08:13:03;72045.22;;;-142.70;44.17
6224;BME280;3145;42.726;23.342;2023-03-23T08:15:31;72025.06;;;-142.70;43.92
6224;BME280;3145;42.726;23.342;2023-03-23T08:18:03;72029.09;;;-142.70;42.61
6224;BME280;3145;42.726;23.342;2023-03-23T08:20:30;72087.53;;;-142.70;44.47
6224;BME280;3145;42.726;23.342;2023-03-23T08:22:58;72073.41;;;-142.70;43.36
6224;BME280;3145;42.726;23.342;2023-03-23T08:25:25;72073.41;;;-142.70;44.12
6224;BME280;3145;42.726;23.342;2023-03-23T08:27:53;72043.19;;;-142.70;43.57
6224;BME280;3145;42.726;23.342;2023-03-23T08:30:21;72008.97;;;-142.70;44.10
6224;BME280;3145;42.726;23.342;2023-03-23T08:32:50;72145.94;;;-142.70;43.83
6224;BME280;3145;42.726;23.342;2023-03-23T08:35:18;72170.09;;;-142.70;44.85
6224;BME280;3145;42.726;23.342;2023-03-23T08:37:46;72214.41;;;-142.70;46.08
6224;BME280;3145;42.726;23.342;2023-03-23T08:40:18;72170.09;;;-142.70;46.42
6224;BME280;3145;42.726;23.342;2023-03-23T08:42:46;72073.41;;;-142.70;46.33
6224;BME280;3145;42.726;23.342;2023-03-23T08:45:17;72069.38;;;-142.70;43.73
6224;BME280;3145;42.726;23.342;2023-03-23T08:47:44;71986.81;;;-142.70;42.35
6224;BME280;3145;42.726;23.342;2023-03-23T08:50:14;71932.44;;;-142.70;44.29
6224;BME280;3145;42.726;23.342;2023-03-23T08:52:42;71978.75;;;-142.70;43.62
6224;BME280;3145;42.726;23.342;2023-03-23T08:55:09;72027.09;;;-142.70;42.46
6224;BME280;3145;42.726;23.342;2023-03-23T08:57:37;72008.97;;;-142.70;41.57
6224;BME280;3145;42.726;23.342;2023-03-23T09:00:05;71992.84;;;-142.70;39.62
6224;BME280;3145;42.726;23.342;2023-03-23T09:02:40;72037.16;;;-142.70;37.78
6224;BME280;3145;42.726;23.342;2023-03-23T09:05:08;72029.09;;;-142.70;38.68
6224;BME280;3145;42.726;23.342;2023-03-23T09:07:37;71944.50;;;-142.70;39.12
6224;BME280;3145;42.726;23.342;2023-03-23T09:10:05;71944.50;;;-142.70;36.78
6224;BME280;3145;42.726;23.342;2023-03-23T09:12:32;71976.75;;;-142.70;37.94
6224;BME280;3145;42.726;23.342;2023-03-23T09:15:00;72037.16;;;-142.70;39.92
6224;BME280;3145;42.726;23.342;2023-03-23T09:17:30;72089.53;;;-142.70;40.15
6224;BME280;3145;42.726;23.342;2023-03-23T09:19:58;72151.97;;;-142.70;39.73
6224;BME280;3145;42.726;23.342;2023-03-23T09:22:25;72158.03;;;-142.70;40.44
6224;BME280;3145;42.726;23.342;2023-03-23T09:24:53;72109.69;;;-142.70;39.15
6224;BME280;3145;42.726;23.342;2023-03-23T09:27:19;72037.16;;;-142.70;38.63
6224;BME280;3145;42.726;23.342;2023-03-23T09:29:46;72079.47;;;-142.70;37.64
6224;BME280;3145;42.726;23.342;2023-03-23T09:32:14;72113.69;;;-142.70;38.35
6224;BME280;3145;42.726;23.342;2023-03-23T09:34:41;72103.63;;;-142.70;38.58
6224;BME280;3145;42.726;23.342;2023-03-23T09:37:09;72103.63;;;-142.70;39.48
6224;BME280;3145;42.726;23.342;2023-03-23T09:39:38;72133.84;;;-142.70;39.59
6224;BME280;3145;42.726;23.342;2023-03-23T09:42:31;72149.97;;;-142.70;39.18
6224;BME280;3145;42.726;23.342;2023-03-23T09:45:12;72178.16;;;-142.70;41.32
6224;BME280;3145;42.726;23.342;2023-03-23T09:47:48;72111.69;;;-142.70;39.46
6224;BME280;3145;42.726;23.342;2023-03-23T09:50:19;72129.81;;;-142.70;39.31
6224;BME280;3145;42.726;23.342;2023-03-23T09:52:52;72149.97;;;-142.70;39.71
6224;BME280;3145;42.726;23.342;2023-03-23T09:55:21;72158.03;;;-142.70;40.17
6224;BME280;3145;42.726;23.342;2023-03-23T09:57:53;72093.56;;;-142.70;38.96
6224;BME280;3145;42.726;23.342;2023-03-23T10:00:25;72095.56;;;-142.70;38.68
6224;BME280;3145;42.726;23.342;2023-03-23T10:02:59;72107.66;;;-142.70;38.72
6224;BME280;3145;42.726;23.342;2023-03-23T10:05:33;72079.47;;;-142.70;38.34
6224;BME280;3145;42.726;23.342;2023-03-23T10:08:10;72093.56;;;-142.70;38.28
6224;BME280;3145;42.726;23.342;2023-03-23T10:10:45;72105.66;;;-142.70;39.27
6224;BME280;3145;42.726;23.342;2023-03-23T10:13:19;72085.50;;;-142.70;38.78
6224;BME280;3145;42.726;23.342;2023-03-23T10:15:48;72085.50;;;-142.70;39.29
6224;BME280;3145;42.726;23.342;2023-03-23T10:18:19;72166.06;;;-142.70;38.74
6224;BME280;3145;42.726;23.342;2023-03-23T10:20:52;72166.06;;;-142.70;39.51
6224;BME280;3145;42.726;23.342;2023-03-23T10:23:52;72166.06;;;-142.70;40.12
6224;BME280;3145;42.726;23.342;2023-03-23T10:26:28;72121.75;;;-142.70;39.59
6224;BME280;3145;42.726;23.342;2023-03-23T10:29:01;72089.53;;;-142.70;38.47
6224;BME280;3145;42.726;23.342;2023-03-23T10:31:34;72063.34;;;-142.70;40.67
6224;BME280;3145;42.726;23.342;2023-03-23T10:34:21;72017.03;;;-142.70;39.01
6224;BME280;3145;42.726;23.342;2023-03-23T10:36:59;71972.72;;;-142.70;38.06
6224;BME280;3145;42.726;23.342;2023-03-23T10:39:31;72010.97;;;-142.70;37.73
6224;BME280;3145;42.726;23.342;2023-03-23T10:42:01;72013.00;;;-142.70;37.79
6224;BME280;3145;42.726;23.342;2023-03-23T10:44:32;72049.25;;;-142.70;38.14
6224;BME280;3145;42.726;23.342;2023-03-23T10:47:02;72091.53;;;-142.70;39.15
6224;BME280;3145;42.726;23.342;2023-03-23T10:49:34;72049.25;;;-142.70;38.18
6224;BME280;3145;42.726;23.342;2023-03-23T10:52:09;72059.31;;;-142.70;38.61
6224;BME280;3145;42.726;23.342;2023-03-23T10:54:48;72073.41;;;-142.70;37.91
6224;BME280;3145;42.726;23.342;2023-03-23T10:57:21;72025.06;;;-142.70;38.23
6224;BME280;3145;42.726;23.342;2023-03-23T10:59:49;72008.97;;;-142.70;38.99
6224;BME280;3145;42.726;23.342;2023-03-23T11:02:18;71984.78;;;-142.70;37.85
6224;BME280;3145;42.726;23.342;2023-03-23T11:04:53;71968.69;;;-142.70;38.80
6224;BME280;3145;42.726;23.342;2023-03-23T11:07:28;72029.09;;;-142.70;37.70
6224;BME280;3145;42.726;23.342;2023-03-23T11:10:05;71968.69;;;-142.70;37.42
6224;BME280;3145;42.726;23.342;2023-03-23T11:12:34;71958.59;;;-142.70;36.92
6224;BME280;3145;42.726;23.342;2023-03-23T11:15:21;72017.03;;;-142.70;37.60
6224;BME280;3145;42.726;23.342;2023-03-23T11:18:00;72055.28;;;-142.70;38.14
6224;BME280;3145;42.726;23.342;2023-03-23T11:20:32;72073.41;;;-142.70;38.60
6224;BME280;3145;42.726;23.342;2023-03-23T11:23:01;72045.22;;;-142.70;38.03
6224;BME280;3145;42.726;23.342;2023-03-23T11:25:53;72002.91;;;-142.70;38.17
6224;BME280;3145;42.726;23.342;2023-03-23T11:28:27;71982.78;;;-142.70;37.69
6224;BME280;3145;42.726;23.342;2023-03-23T11:30:55;71992.84;;;-142.70;37.62
6224;BME280;3145;42.726;23.342;2023-03-23T11:33:22;72002.91;;;-142.70;37.26
6224;BME280;3145;42.726;23.342;2023-03-23T11:35:52;71932.44;;;-142.70;36.86
6224;BME280;3145;42.726;23.342;2023-03-23T11:38:22;71914.28;;;-142.70;36.87
6224;BME280;3145;42.726;23.342;2023-03-23T11:40:54;72017.03;;;-142.70;37.95
6224;BME280;3145;42.726;23.342;2023-03-23T11:43:22;72017.03;;;-142.70;38.22
6224;BME280;3145;42.726;23.342;2023-03-23T11:45:56;72004.94;;;-142.70;37.75
6224;BME280;3145;42.726;23.342;2023-03-23T11:48:28;72000.91;;;-142.70;37.45
6224;BME280;3145;42.726;23.342;2023-03-23T11:51:01;71942.50;;;-142.70;37.32
6224;BME280;3145;42.726;23.342;2023-03-23T11:53:45;71968.69;;;-142.70;37.88
6224;BME280;3145;42.726;23.342;2023-03-23T11:56:20;71992.84;;;-142.70;37.55
6224;BME280;3145;42.726;23.342;2023-03-23T11:58:49;71980.75;;;-142.70;37.04
6224;BME280;3145;42.726;23.342;2023-03-23T12:01:24;71932.44;;;-142.70;36.76
6224;BME280;3145;42.726;23.342;2023-03-23T12:07:02;71892.16;;;-142.70;36.87
6224;BME280;3145;42.726;23.342;2023-03-23T12:09:41;71888.13;;;-142.70;36.18
6224;BME280;3145;42.726;23.342;2023-03-23T12:12:18;71857.91;;;-142.70;36.63
6224;BME280;3145;42.726;23.342;2023-03-23T12:14:53;71805.53;;;-142.70;36.45
6224;BME280;3145;42.726;23.342;2023-03-23T12:17:29;71763.25;;;-142.70;35.46
6224;BME280;3145;42.726;23.342;2023-03-23T12:20:08;71831.72;;;-142.70;35.96
6224;BME280;3145;42.726;23.342;2023-03-23T12:22:47;71934.44;;;-142.70;37.39
6224;BME280;3145;42.726;23.342;2023-03-23T12:25:39;71918.31;;;-142.70;37.41
6224;BME280;3145;42.726;23.342;2023-03-23T12:28:18;71916.31;;;-142.70;37.41
6224;BME280;3145;42.726;23.342;2023-03-23T12:30:54;71906.25;;;-142.70;36.60
6224;BME280;3145;42.726;23.342;2023-03-23T12:33:29;71867.97;;;-142.70;37.25
6224;BME280;3145;42.726;23.342;2023-03-23T12:36:08;71807.56;;;-142.70;36.45
6224;BME280;3145;42.726;23.342;2023-03-23T12:38:59;71771.28;;;-142.70;36.25
6224;BME280;3145;42.726;23.342;2023-03-23T12:41:34;71747.13;;;-142.70;36.11
6224;BME280;3145;42.726;23.342;2023-03-23T12:44:07;71739.06;;;-142.70;34.69
6224;BME280;3145;42.726;23.342;2023-03-23T12:47:01;71755.19;;;-142.70;35.21
6224;BME280;3145;42.726;23.342;2023-03-23T12:49:34;71763.25;;;-142.70;35.68
6224;BME280;3145;42.726;23.342;2023-03-23T12:52:06;71777.34;;;-142.70;35.20
6224;BME280;3145;42.726;23.342;2023-03-23T12:54:40;71817.63;;;-142.70;36.15
6224;BME280;3145;42.726;23.342;2023-03-23T12:57:17;71833.72;;;-142.70;35.81
6224;BME280;3145;42.726;23.342;2023-03-23T12:59:52;71872.00;;;-142.70;36.14
6224;BME280;3145;42.726;23.342;2023-03-23T13:02:23;71900.19;;;-142.70;36.54
6224;BME280;3145;42.726;23.342;2023-03-23T13:04:56;71894.16;;;-142.70;36.76
6224;BME280;3145;42.726;23.342;2023-03-23T13:07:29;71876.03;;;-142.70;36.64
6224;BME280;3145;42.726;23.342;2023-03-23T13:10:03;71870.00;;;-142.70;37.43
6224;BME280;3145;42.726;23.342;2023-03-23T13:12:32;71910.28;;;-142.70;37.24
6224;BME280;3145;42.726;23.342;2023-03-23T13:15:16;71896.16;;;-142.70;36.93